sensor_id;sensor_type;location;lat;lon;timestamp;P1;durP1;ratioP1;P2;durP2;ratioP2
22606;SDS011;11470;20.968;105.834;2022-08-19T00:08:33;36.20;;;20.55;;
22606;SDS011;11470;20.968;105.834;2022-08-19T00:13:44;41.72;;;24.65;;
22606;SDS011;11470;20.968;105.834;2022-08-19T00:18:53;40.42;;;22.23;;
22606;SDS011;11470;20.968;105.834;2022-08-19T00:24:02;70.82;;;36.17;;
22606;SDS011;11470;20.968;105.834;2022-08-19T00:29:10;62.30;;;35.53;;
22606;SDS011;11470;20.968;105.834;2022-08-19T00:34:16;51.10;;;30.30;;
22606;SDS011;11470;20.968;105.834;2022-08-19T00:39:23;70.38;;;38.08;;
22606;SDS011;11470;20.968;105.834;2022-08-19T00:44:29;58.22;;;32.97;;
22606;SDS011;11470;20.968;105.834;2022-08-19T00:49:45;57.88;;;33.63;;
22606;SDS011;11470;20.968;105.834;2022-08-19T00:54:57;46.20;;;28.20;;
22606;SDS011;11470;20.968;105.834;2022-08-19T01:00:07;51.95;;;30.65;;
22606;SDS011;11470;20.968;105.834;2022-08-19T01:05:30;60.85;;;35.20;;
22606;SDS011;11470;20.968;105.834;2022-08-19T01:10:39;54.92;;;33.00;;
22606;SDS011;11470;20.968;105.834;2022-08-19T01:15:55;61.72;;;35.80;;
22606;SDS011;11470;20.968;105.834;2022-08-19T01:21:05;49.90;;;31.48;;
22606;SDS011;11470;20.968;105.834;2022-08-19T01:26:21;69.80;;;40.03;;
22606;SDS011;11470;20.968;105.834;2022-08-19T01:31:29;53.15;;;33.35;;
22606;SDS011;11470;20.968;105.834;2022-08-19T01:36:41;52.10;;;32.92;;
22606;SDS011;11470;20.968;105.834;2022-08-19T01:41:53;52.15;;;32.13;;
22606;SDS011;11470;20.968;105.834;2022-08-19T01:46:59;41.95;;;24.15;;
22606;SDS011;11470;20.968;105.834;2022-08-19T01:52:05;64.70;;;36.78;;
22606;SDS011;11470;20.968;105.834;2022-08-19T01:57:12;61.88;;;40.88;;
22606;SDS011;11470;20.968;105.834;2022-08-19T02:02:18;80.50;;;50.35;;
22606;SDS011;11470;20.968;105.834;2022-08-19T02:07:25;60.75;;;40.67;;
22606;SDS011;11470;20.968;105.834;2022-08-19T02:12:32;53.20;;;33.22;;
22606;SDS011;11470;20.968;105.834;2022-08-19T02:17:39;65.65;;;43.40;;
22606;SDS011;11470;20.968;105.834;2022-08-19T02:22:45;73.07;;;46.78;;
22606;SDS011;11470;20.968;105.834;2022-08-19T02:32:56;68.32;;;46.83;;
22606;SDS011;11470;20.968;105.834;2022-08-19T02:38:02;69.78;;;50.85;;
22606;SDS011;11470;20.968;105.834;2022-08-19T02:43:27;65.82;;;50.38;;
22606;SDS011;11470;20.968;105.834;2022-08-19T02:48:36;76.30;;;56.03;;
22606;SDS011;11470;20.968;105.834;2022-08-19T02:53:46;61.83;;;46.20;;
22606;SDS011;11470;20.968;105.834;2022-08-19T02:58:53;72.97;;;52.95;;
22606;SDS011;11470;20.968;105.834;2022-08-19T03:04:01;56.20;;;43.47;;
22606;SDS011;11470;20.968;105.834;2022-08-19T03:09:09;68.97;;;51.00;;
22606;SDS011;11470;20.968;105.834;2022-08-19T03:14:15;73.50;;;52.13;;
22606;SDS011;11470;20.968;105.834;2022-08-19T03:19:22;59.90;;;41.72;;
22606;SDS011;11470;20.968;105.834;2022-08-19T03:24:27;76.20;;;56.75;;
22606;SDS011;11470;20.968;105.834;2022-08-19T03:29:34;70.63;;;54.75;;
22606;SDS011;11470;20.968;105.834;2022-08-19T03:34:45;63.03;;;46.50;;
22606;SDS011;11470;20.968;105.834;2022-08-19T03:39:51;57.78;;;44.67;;
22606;SDS011;11470;20.968;105.834;2022-08-19T03:44:57;72.32;;;50.45;;
22606;SDS011;11470;20.968;105.834;2022-08-19T03:50:03;96.28;;;70.53;;
22606;SDS011;11470;20.968;105.834;2022-08-19T03:55:10;88.53;;;72.25;;
22606;SDS011;11470;20.968;105.834;2022-08-19T04:00:15;80.75;;;65.93;;
22606;SDS011;11470;20.968;105.834;2022-08-19T04:05:22;83.40;;;64.93;;
22606;SDS011;11470;20.968;105.834;2022-08-19T04:10:29;77.13;;;59.95;;
22606;SDS011;11470;20.968;105.834;2022-08-19T04:15:40;83.05;;;66.43;;
22606;SDS011;11470;20.968;105.834;2022-08-19T04:20:47;78.15;;;62.05;;
22606;SDS011;11470;20.968;105.834;2022-08-19T04:25:54;80.45;;;64.10;;
22606;SDS011;11470;20.968;105.834;2022-08-19T04:31:00;83.22;;;70.65;;
22606;SDS011;11470;20.968;105.834;2022-08-19T04:36:07;85.03;;;65.72;;
22606;SDS011;11470;20.968;105.834;2022-08-19T04:41:22;83.43;;;65.90;;
22606;SDS011;11470;20.968;105.834;2022-08-19T04:46:47;77.53;;;61.03;;
22606;SDS011;11470;20.968;105.834;2022-08-19T04:51:54;74.68;;;61.50;;
22606;SDS011;11470;20.968;105.834;2022-08-19T04:57:00;76.97;;;62.90;;
22606;SDS011;11470;20.968;105.834;2022-08-19T05:02:08;69.30;;;57.75;;
22606;SDS011;11470;20.968;105.834;2022-08-19T05:07:15;80.63;;;63.90;;
22606;SDS011;11470;20.968;105.834;2022-08-19T05:12:21;77.80;;;61.97;;
22606;SDS011;11470;20.968;105.834;2022-08-19T05:17:31;75.25;;;59.40;;
22606;SDS011;11470;20.968;105.834;2022-08-19T05:22:41;72.57;;;57.42;;
22606;SDS011;11470;20.968;105.834;2022-08-19T05:27:47;68.32;;;55.92;;
22606;SDS011;11470;20.968;105.834;2022-08-19T05:32:54;67.22;;;53.05;;
22606;SDS011;11470;20.968;105.834;2022-08-19T05:38:00;62.58;;;51.33;;
22606;SDS011;11470;20.968;105.834;2022-08-19T05:43:07;58.55;;;49.25;;
22606;SDS011;11470;20.968;105.834;2022-08-19T05:48:13;49.70;;;39.83;;
22606;SDS011;11470;20.968;105.834;2022-08-19T05:53:21;42.20;;;35.53;;
22606;SDS011;11470;20.968;105.834;2022-08-19T05:58:27;53.40;;;44.35;;
22606;SDS011;11470;20.968;105.834;2022-08-19T06:03:33;49.75;;;42.80;;
22606;SDS011;11470;20.968;105.834;2022-08-19T06:08:40;54.60;;;47.85;;
22606;SDS011;11470;20.968;105.834;2022-08-19T06:13:49;46.55;;;40.85;;
22606;SDS011;11470;20.968;105.834;2022-08-19T06:19:03;44.35;;;35.70;;
22606;SDS011;11470;20.968;105.834;2022-08-19T06:24:12;48.25;;;38.00;;
22606;SDS011;11470;20.968;105.834;2022-08-19T06:29:21;45.35;;;35.83;;
22606;SDS011;11470;20.968;105.834;2022-08-19T06:34:29;51.30;;;39.35;;
22606;SDS011;11470;20.968;105.834;2022-08-19T06:39:37;46.67;;;36.97;;
22606;SDS011;11470;20.968;105.834;2022-08-19T06:44:46;50.10;;;40.30;;
22606;SDS011;11470;20.968;105.834;2022-08-19T06:49:58;48.38;;;40.25;;
22606;SDS011;11470;20.968;105.834;2022-08-19T06:55:07;48.63;;;41.03;;
22606;SDS011;11470;20.968;105.834;2022-08-19T07:00:13;45.47;;;39.60;;
22606;SDS011;11470;20.968;105.834;2022-08-19T07:05:20;53.63;;;40.38;;
22606;SDS011;11470;20.968;105.834;2022-08-19T07:10:26;49.05;;;38.85;;
22606;SDS011;11470;20.968;105.834;2022-08-19T07:15:31;49.78;;;39.05;;
22606;SDS011;11470;20.968;105.834;2022-08-19T07:20:41;52.25;;;40.22;;
22606;SDS011;11470;20.968;105.834;2022-08-19T07:25:48;43.42;;;35.92;;
22606;SDS011;11470;20.968;105.834;2022-08-19T07:30:55;45.28;;;37.90;;
22606;SDS011;11470;20.968;105.834;2022-08-19T07:36:05;46.60;;;38.08;;
22606;SDS011;11470;20.968;105.834;2022-08-19T07:41:19;46.13;;;39.25;;
22606;SDS011;11470;20.968;105.834;2022-08-19T07:46:28;45.15;;;34.10;;
22606;SDS011;11470;20.968;105.834;2022-08-19T07:51:37;45.00;;;37.90;;
22606;SDS011;11470;20.968;105.834;2022-08-19T07:56:47;49.83;;;39.70;;
22606;SDS011;11470;20.968;105.834;2022-08-19T08:01:55;51.72;;;41.45;;
22606;SDS011;11470;20.968;105.834;2022-08-19T08:07:03;48.13;;;41.90;;
22606;SDS011;11470;20.968;105.834;2022-08-19T08:12:36;48.80;;;41.83;;
22606;SDS011;11470;20.968;105.834;2022-08-19T08:18:06;41.97;;;30.50;;
22606;SDS011;11470;20.968;105.834;2022-08-19T08:23:12;51.35;;;40.33;;
22606;SDS011;11470;20.968;105.834;2022-08-19T08:28:29;54.35;;;42.97;;
22606;SDS011;11470;20.968;105.834;2022-08-19T08:33:35;52.17;;;43.83;;
22606;SDS011;11470;20.968;105.834;2022-08-19T08:38:44;52.30;;;43.90;;
22606;SDS011;11470;20.968;105.834;2022-08-19T08:43:51;56.75;;;45.53;;
22606;SDS011;11470;20.968;105.834;2022-08-19T08:54:26;51.90;;;42.72;;
22606;SDS011;11470;20.968;105.834;2022-08-19T08:59:40;48.15;;;41.47;;
22606;SDS011;11470;20.968;105.834;2022-08-19T09:04:48;54.55;;;44.50;;
22606;SDS011;11470;20.968;105.834;2022-08-19T09:10:06;51.47;;;41.67;;
22606;SDS011;11470;20.968;105.834;2022-08-19T09:20:45;52.42;;;39.22;;
22606;SDS011;11470;20.968;105.834;2022-08-19T09:25:51;52.17;;;41.92;;
22606;SDS011;11470;20.968;105.834;2022-08-19T09:30:57;52.38;;;43.47;;
22606;SDS011;11470;20.968;105.834;2022-08-19T09:36:07;56.92;;;40.53;;
22606;SDS011;11470;20.968;105.834;2022-08-19T09:41:24;47.13;;;38.67;;
22606;SDS011;11470;20.968;105.834;2022-08-19T09:46:31;52.85;;;44.13;;
22606;SDS011;11470;20.968;105.834;2022-08-19T09:51:37;45.10;;;32.53;;
22606;SDS011;11470;20.968;105.834;2022-08-19T09:56:43;57.00;;;44.30;;
22606;SDS011;11470;20.968;105.834;2022-08-19T10:01:49;54.13;;;43.13;;
22606;SDS011;11470;20.968;105.834;2022-08-19T10:06:55;52.30;;;40.60;;
22606;SDS011;11470;20.968;105.834;2022-08-19T10:12:02;49.15;;;40.15;;
22606;SDS011;11470;20.968;105.834;2022-08-19T10:17:12;48.50;;;37.88;;
22606;SDS011;11470;20.968;105.834;2022-08-19T10:22:23;49.30;;;40.67;;
22606;SDS011;11470;20.968;105.834;2022-08-19T10:27:29;57.35;;;42.88;;
22606;SDS011;11470;20.968;105.834;2022-08-19T10:32:37;51.03;;;38.53;;
22606;SDS011;11470;20.968;105.834;2022-08-19T10:37:48;50.20;;;36.58;;
22606;SDS011;11470;20.968;105.834;2022-08-19T10:43:03;51.25;;;37.30;;
22606;SDS011;11470;20.968;105.834;2022-08-19T10:48:09;52.53;;;38.47;;
22606;SDS011;11470;20.968;105.834;2022-08-19T10:53:21;54.63;;;42.88;;
22606;SDS011;11470;20.968;105.834;2022-08-19T10:58:29;25.60;;;15.85;;
22606;SDS011;11470;20.968;105.834;2022-08-19T11:03:35;32.17;;;22.20;;
22606;SDS011;11470;20.968;105.834;2022-08-19T11:08:43;51.40;;;40.10;;
22606;SDS011;11470;20.968;105.834;2022-08-19T11:13:49;53.42;;;40.05;;
22606;SDS011;11470;20.968;105.834;2022-08-19T11:18:57;54.00;;;41.60;;
22606;SDS011;11470;20.968;105.834;2022-08-19T11:24:06;54.90;;;40.40;;
22606;SDS011;11470;20.968;105.834;2022-08-19T11:29:18;50.95;;;39.85;;
22606;SDS011;11470;20.968;105.834;2022-08-19T11:34:26;53.83;;;42.00;;
22606;SDS011;11470;20.968;105.834;2022-08-19T11:39:32;57.45;;;43.42;;
22606;SDS011;11470;20.968;105.834;2022-08-19T11:44:41;58.28;;;45.03;;
22606;SDS011;11470;20.968;105.834;2022-08-19T11:54:53;59.72;;;45.85;;
22606;SDS011;11470;20.968;105.834;2022-08-19T11:59:58;59.00;;;47.33;;
22606;SDS011;11470;20.968;105.834;2022-08-19T12:05:06;62.60;;;45.03;;
22606;SDS011;11470;20.968;105.834;2022-08-19T12:10:14;63.22;;;47.40;;
22606;SDS011;11470;20.968;105.834;2022-08-19T12:15:23;58.85;;;48.60;;
22606;SDS011;11470;20.968;105.834;2022-08-19T12:20:39;43.60;;;31.93;;
22606;SDS011;11470;20.968;105.834;2022-08-19T12:25:46;41.10;;;24.50;;
22606;SDS011;11470;20.968;105.834;2022-08-19T12:30:56;45.70;;;29.58;;
22606;SDS011;11470;20.968;105.834;2022-08-19T12:36:03;41.47;;;26.02;;
22606;SDS011;11470;20.968;105.834;2022-08-19T12:41:14;38.80;;;24.00;;
22606;SDS011;11470;20.968;105.834;2022-08-19T12:46:22;44.78;;;34.88;;
22606;SDS011;11470;20.968;105.834;2022-08-19T12:51:28;27.10;;;17.77;;
22606;SDS011;11470;20.968;105.834;2022-08-19T12:56:36;36.78;;;25.33;;
22606;SDS011;11470;20.968;105.834;2022-08-19T13:01:41;28.85;;;22.58;;
22606;SDS011;11470;20.968;105.834;2022-08-19T13:06:47;34.75;;;23.55;;
22606;SDS011;11470;20.968;105.834;2022-08-19T13:11:53;23.98;;;15.77;;
22606;SDS011;11470;20.968;105.834;2022-08-19T13:17:00;26.35;;;18.33;;
22606;SDS011;11470;20.968;105.834;2022-08-19T13:22:07;23.88;;;12.50;;
22606;SDS011;11470;20.968;105.834;2022-08-19T13:27:16;22.67;;;14.70;;
22606;SDS011;11470;20.968;105.834;2022-08-19T13:32:22;21.60;;;14.73;;
22606;SDS011;11470;20.968;105.834;2022-08-19T13:37:46;18.23;;;11.55;;
22606;SDS011;11470;20.968;105.834;2022-08-19T13:42:53;18.35;;;14.15;;
22606;SDS011;11470;20.968;105.834;2022-08-19T13:47:59;15.77;;;9.60;;
22606;SDS011;11470;20.968;105.834;2022-08-19T13:53:11;18.58;;;12.85;;
22606;SDS011;11470;20.968;105.834;2022-08-19T13:58:19;23.63;;;14.27;;
22606;SDS011;11470;20.968;105.834;2022-08-19T14:03:27;21.08;;;15.13;;
22606;SDS011;11470;20.968;105.834;2022-08-19T14:08:32;20.17;;;14.55;;
22606;SDS011;11470;20.968;105.834;2022-08-19T14:13:39;21.77;;;15.57;;
22606;SDS011;11470;20.968;105.834;2022-08-19T14:18:44;20.50;;;15.70;;
22606;SDS011;11470;20.968;105.834;2022-08-19T14:23:51;23.27;;;16.38;;
22606;SDS011;11470;20.968;105.834;2022-08-19T14:28:57;21.42;;;15.93;;
22606;SDS011;11470;20.968;105.834;2022-08-19T14:34:03;20.75;;;15.23;;
22606;SDS011;11470;20.968;105.834;2022-08-19T14:39:08;16.90;;;14.85;;
22606;SDS011;11470;20.968;105.834;2022-08-19T14:44:15;20.33;;;13.00;;
22606;SDS011;11470;20.968;105.834;2022-08-19T14:49:21;19.67;;;13.32;;
22606;SDS011;11470;20.968;105.834;2022-08-19T14:54:36;18.80;;;13.90;;
22606;SDS011;11470;20.968;105.834;2022-08-19T14:59:42;17.20;;;11.70;;
22606;SDS011;11470;20.968;105.834;2022-08-19T15:04:48;16.27;;;10.75;;
22606;SDS011;11470;20.968;105.834;2022-08-19T15:10:00;17.60;;;11.98;;
22606;SDS011;11470;20.968;105.834;2022-08-19T15:15:06;19.45;;;11.82;;
22606;SDS011;11470;20.968;105.834;2022-08-19T15:20:13;16.42;;;10.73;;
22606;SDS011;11470;20.968;105.834;2022-08-19T15:25:19;17.25;;;11.68;;
22606;SDS011;11470;20.968;105.834;2022-08-19T15:30:25;18.40;;;11.80;;
22606;SDS011;11470;20.968;105.834;2022-08-19T15:35:32;15.52;;;11.07;;
22606;SDS011;11470;20.968;105.834;2022-08-19T15:45:45;18.23;;;12.05;;
22606;SDS011;11470;20.968;105.834;2022-08-19T15:50:51;17.88;;;13.07;;
22606;SDS011;11470;20.968;105.834;2022-08-19T16:01:03;20.55;;;13.15;;
22606;SDS011;11470;20.968;105.834;2022-08-19T16:06:28;19.35;;;13.23;;
22606;SDS011;11470;20.968;105.834;2022-08-19T16:11:34;20.83;;;13.70;;
22606;SDS011;11470;20.968;105.834;2022-08-19T16:16:41;22.25;;;15.25;;
22606;SDS011;11470;20.968;105.834;2022-08-19T16:21:50;24.42;;;16.35;;
22606;SDS011;11470;20.968;105.834;2022-08-19T16:26:57;20.33;;;14.50;;
22606;SDS011;11470;20.968;105.834;2022-08-19T16:32:06;23.92;;;15.65;;
22606;SDS011;11470;20.968;105.834;2022-08-19T16:37:13;18.75;;;13.85;;
22606;SDS011;11470;20.968;105.834;2022-08-19T16:42:22;17.48;;;11.20;;
22606;SDS011;11470;20.968;105.834;2022-08-19T16:47:28;16.05;;;10.35;;
22606;SDS011;11470;20.968;105.834;2022-08-19T16:52:33;15.52;;;9.65;;
22606;SDS011;11470;20.968;105.834;2022-08-19T16:57:40;18.95;;;13.88;;
22606;SDS011;11470;20.968;105.834;2022-08-19T17:02:46;18.52;;;14.75;;
22606;SDS011;11470;20.968;105.834;2022-08-19T17:07:52;23.05;;;15.20;;
22606;SDS011;11470;20.968;105.834;2022-08-19T17:12:59;21.27;;;14.75;;
22606;SDS011;11470;20.968;105.834;2022-08-19T17:18:05;20.48;;;15.68;;
22606;SDS011;11470;20.968;105.834;2022-08-19T17:23:13;23.25;;;15.77;;
22606;SDS011;11470;20.968;105.834;2022-08-19T17:28:20;20.83;;;15.38;;
22606;SDS011;11470;20.968;105.834;2022-08-19T17:33:28;19.05;;;15.68;;
22606;SDS011;11470;20.968;105.834;2022-08-19T17:38:34;21.80;;;15.98;;
22606;SDS011;11470;20.968;105.834;2022-08-19T17:43:42;16.98;;;12.65;;
22606;SDS011;11470;20.968;105.834;2022-08-19T17:48:48;18.75;;;12.18;;
22606;SDS011;11470;20.968;105.834;2022-08-19T17:53:57;19.95;;;14.25;;
22606;SDS011;11470;20.968;105.834;2022-08-19T17:59:04;19.80;;;13.35;;
22606;SDS011;11470;20.968;105.834;2022-08-19T18:04:15;26.27;;;16.85;;
22606;SDS011;11470;20.968;105.834;2022-08-19T18:09:26;22.15;;;15.75;;
22606;SDS011;11470;20.968;105.834;2022-08-19T18:14:44;24.98;;;16.75;;
22606;SDS011;11470;20.968;105.834;2022-08-19T18:19:50;23.45;;;16.98;;
22606;SDS011;11470;20.968;105.834;2022-08-19T18:24:56;25.58;;;18.90;;
22606;SDS011;11470;20.968;105.834;2022-08-19T18:30:03;22.70;;;17.92;;
22606;SDS011;11470;20.968;105.834;2022-08-19T18:35:12;23.90;;;16.50;;
22606;SDS011;11470;20.968;105.834;2022-08-19T18:40:20;22.55;;;17.45;;
22606;SDS011;11470;20.968;105.834;2022-08-19T18:46:05;22.77;;;15.82;;
22606;SDS011;11470;20.968;105.834;2022-08-19T18:51:34;25.48;;;19.45;;
22606;SDS011;11470;20.968;105.834;2022-08-19T18:56:40;33.80;;;25.38;;
22606;SDS011;11470;20.968;105.834;2022-08-19T19:01:49;47.42;;;31.88;;
22606;SDS011;11470;20.968;105.834;2022-08-19T19:06:59;34.60;;;25.65;;
22606;SDS011;11470;20.968;105.834;2022-08-19T19:12:07;36.08;;;26.00;;
22606;SDS011;11470;20.968;105.834;2022-08-19T19:17:14;30.83;;;23.13;;
22606;SDS011;11470;20.968;105.834;2022-08-19T19:22:20;45.28;;;31.73;;
22606;SDS011;11470;20.968;105.834;2022-08-19T19:27:26;38.08;;;29.20;;
22606;SDS011;11470;20.968;105.834;2022-08-19T19:37:40;38.35;;;30.45;;
22606;SDS011;11470;20.968;105.834;2022-08-19T19:42:48;40.15;;;30.98;;
22606;SDS011;11470;20.968;105.834;2022-08-19T19:47:54;35.38;;;27.30;;
22606;SDS011;11470;20.968;105.834;2022-08-19T19:53:01;32.72;;;23.92;;
22606;SDS011;11470;20.968;105.834;2022-08-19T19:58:07;33.40;;;23.77;;
22606;SDS011;11470;20.968;105.834;2022-08-19T20:03:13;33.35;;;22.55;;
22606;SDS011;11470;20.968;105.834;2022-08-19T20:08:25;30.70;;;18.95;;
22606;SDS011;11470;20.968;105.834;2022-08-19T20:13:49;27.60;;;18.47;;
22606;SDS011;11470;20.968;105.834;2022-08-19T20:18:55;26.55;;;19.73;;
22606;SDS011;11470;20.968;105.834;2022-08-19T20:24:02;26.08;;;17.45;;
22606;SDS011;11470;20.968;105.834;2022-08-19T20:29:12;54.22;;;28.42;;
22606;SDS011;11470;20.968;105.834;2022-08-19T20:34:39;49.03;;;28.55;;
22606;SDS011;11470;20.968;105.834;2022-08-19T20:39:47;39.33;;;24.50;;
22606;SDS011;11470;20.968;105.834;2022-08-19T20:49:58;49.23;;;26.63;;
22606;SDS011;11470;20.968;105.834;2022-08-19T20:55:04;41.58;;;23.65;;
22606;SDS011;11470;20.968;105.834;2022-08-19T21:00:10;31.45;;;20.17;;
22606;SDS011;11470;20.968;105.834;2022-08-19T21:05:16;44.72;;;26.58;;
22606;SDS011;11470;20.968;105.834;2022-08-19T21:10:22;28.27;;;16.50;;
22606;SDS011;11470;20.968;105.834;2022-08-19T21:15:29;23.48;;;12.55;;
22606;SDS011;11470;20.968;105.834;2022-08-19T21:20:35;16.45;;;8.93;;
22606;SDS011;11470;20.968;105.834;2022-08-19T21:25:41;18.63;;;10.38;;
22606;SDS011;11470;20.968;105.834;2022-08-19T21:30:56;15.10;;;8.48;;
22606;SDS011;11470;20.968;105.834;2022-08-19T21:36:03;8.55;;;4.05;;
22606;SDS011;11470;20.968;105.834;2022-08-19T21:41:09;7.68;;;4.70;;
22606;SDS011;11470;20.968;105.834;2022-08-19T21:46:14;5.25;;;3.90;;
22606;SDS011;11470;20.968;105.834;2022-08-19T21:51:19;5.82;;;3.47;;
22606;SDS011;11470;20.968;105.834;2022-08-19T21:56:25;4.53;;;3.20;;
22606;SDS011;11470;20.968;105.834;2022-08-19T22:01:31;5.57;;;3.88;;
22606;SDS011;11470;20.968;105.834;2022-08-19T22:06:37;3.45;;;2.13;;
22606;SDS011;11470;20.968;105.834;2022-08-19T22:11:42;3.38;;;2.95;;
22606;SDS011;11470;20.968;105.834;2022-08-19T22:16:48;3.50;;;2.70;;
22606;SDS011;11470;20.968;105.834;2022-08-19T22:21:55;3.65;;;3.28;;
22606;SDS011;11470;20.968;105.834;2022-08-19T22:27:00;3.90;;;2.85;;
22606;SDS011;11470;20.968;105.834;2022-08-19T22:32:10;5.13;;;2.90;;
22606;SDS011;11470;20.968;105.834;2022-08-19T22:37:29;7.43;;;3.03;;
22606;SDS011;11470;20.968;105.834;2022-08-19T22:42:34;3.78;;;2.40;;
22606;SDS011;11470;20.968;105.834;2022-08-19T22:47:41;2.78;;;2.00;;
22606;SDS011;11470;20.968;105.834;2022-08-19T22:52:48;2.20;;;2.00;;
22606;SDS011;11470;20.968;105.834;2022-08-19T23:02:59;4.43;;;2.78;;
22606;SDS011;11470;20.968;105.834;2022-08-19T23:08:05;4.75;;;2.60;;
22606;SDS011;11470;20.968;105.834;2022-08-19T23:23:23;4.80;;;3.05;;
22606;SDS011;11470;20.968;105.834;2022-08-19T23:28:29;4.53;;;2.45;;
22606;SDS011;11470;20.968;105.834;2022-08-19T23:33:53;4.63;;;3.10;;
22606;SDS011;11470;20.968;105.834;2022-08-19T23:38:58;5.47;;;3.60;;
22606;SDS011;11470;20.968;105.834;2022-08-19T23:49:16;4.53;;;2.90;;
22606;SDS011;11470;20.968;105.834;2022-08-19T23:59:45;5.72;;;4.10;;
